Time;durP1;ratioP1;P1;durP2;ratioP2;P2;SDS_P1;SDS_P2;PMS_P1;PMS_P2;Temp;Humidity;BMP_temperature;BMP_pressure;BME280_temperature;BME280_humidity;BME280_pressure;Samples;Min_cycle;Max_cycle;Signal;HPM_P1;HPM_P2
2023/01/20 00:01:03;;;;;;;9.43;4.25;;;;;;;;;;6309779;22;20057;-86
2023/01/20 00:03:29;;;;;;;8.85;3.90;;;;;;;;;;6309824;22;20089;-85
2023/01/20 00:05:56;;;;;;;10.27;4.53;;;;;;;;;;6310555;22;20063;-85
2023/01/20 00:08:22;;;;;;;7.80;3.95;;;;;;;;;;6283616;22;20028;-85
2023/01/20 00:10:49;;;;;;;13.20;4.75;;;;;;;;;;6309747;22;20099;-85
2023/01/20 00:13:15;;;;;;;11.10;4.45;;;;;;;;;;6310610;22;20464;-85
2023/01/20 00:15:41;;;;;;;9.82;4.50;;;;;;;;;;6309987;22;20023;-85
2023/01/20 00:18:08;;;;;;;8.10;4.15;;;;;;;;;;6309759;22;20488;-84
2023/01/20 00:20:34;;;;;;;8.48;4.07;;;;;;;;;;6309299;22;20576;-84
2023/01/20 00:23:01;;;;;;;11.10;5.28;;;;;;;;;;6310014;22;20046;-84
2023/01/20 00:25:27;;;;;;;10.77;4.57;;;;;;;;;;6310301;22;20024;-84
2023/01/20 00:27:53;;;;;;;10.82;5.03;;;;;;;;;;6310371;22;20078;-84
2023/01/20 00:30:20;;;;;;;10.98;5.03;;;;;;;;;;6306883;22;20725;-84
2023/01/20 00:32:47;;;;;;;13.32;5.53;;;;;;;;;;6306087;22;20453;-84
2023/01/20 00:35:13;;;;;;;11.82;5.18;;;;;;;;;;6308723;22;20063;-84
2023/01/20 00:37:41;;;;;;;11.32;5.00;;;;;;;;;;6309620;22;20039;-83
2023/01/20 00:40:08;;;;;;;12.35;6.03;;;;;;;;;;6309258;22;20075;-84
2023/01/20 00:42:35;;;;;;;15.40;5.78;;;;;;;;;;6308258;22;20079;-84
2023/01/20 00:45:01;;;;;;;13.40;5.97;;;;;;;;;;6308615;22;20072;-84
2023/01/20 00:47:28;;;;;;;15.93;7.07;;;;;;;;;;6307128;22;20028;-84
2023/01/20 00:49:54;;;;;;;16.92;7.68;;;;;;;;;;6308478;22;20020;-84
2023/01/20 00:52:21;;;;;;;18.60;7.97;;;;;;;;;;6310443;22;20043;-84
2023/01/20 00:54:47;;;;;;;17.65;7.97;;;;;;;;;;6308328;22;20475;-84
2023/01/20 00:57:14;;;;;;;16.95;7.30;;;;;;;;;;6308779;22;20031;-84
2023/01/20 00:59:40;;;;;;;21.30;9.60;;;;;;;;;;6309213;22;20062;-84
2023/01/20 01:02:06;;;;;;;22.02;9.63;;;;;;;;;;6307811;22;20012;-84
2023/01/20 01:04:33;;;;;;;22.70;9.82;;;;;;;;;;6281142;22;20035;-84
2023/01/20 01:06:59;;;;;;;21.23;10.00;;;;;;;;;;6308214;22;20020;-84
2023/01/20 01:09:26;;;;;;;24.27;10.43;;;;;;;;;;6308558;22;20499;-84
2023/01/20 01:11:52;;;;;;;25.95;10.60;;;;;;;;;;6308199;22;20061;-84
2023/01/20 01:14:18;;;;;;;28.08;11.63;;;;;;;;;;6309111;22;20019;-84
2023/01/20 01:16:45;;;;;;;28.05;11.70;;;;;;;;;;6307947;22;20574;-84
2023/01/20 01:19:11;;;;;;;33.45;11.32;;;;;;;;;;6306762;22;20028;-85
2023/01/20 01:21:37;;;;;;;27.90;11.95;;;;;;;;;;6308232;22;20093;-84
2023/01/20 01:24:04;;;;;;;27.50;12.07;;;;;;;;;;6307127;22;20034;-84
2023/01/20 01:26:30;;;;;;;26.85;12.07;;;;;;;;;;6305817;22;20478;-84
2023/01/20 01:28:58;;;;;;;30.52;11.70;;;;;;;;;;6307372;22;20022;-84
2023/01/20 01:31:24;;;;;;;27.90;12.30;;;;;;;;;;6305656;22;20622;-84
2023/01/20 01:33:50;;;;;;;31.55;12.43;;;;;;;;;;6307035;22;20023;-84
2023/01/20 01:36:17;;;;;;;29.23;12.27;;;;;;;;;;6306642;22;20106;-87
2023/01/20 01:38:44;;;;;;;30.38;12.20;;;;;;;;;;6304779;22;20076;-84
2023/01/20 01:41:23;;;;;;;27.92;11.73;;;;;;;;;;6308396;22;20020;-84
2023/01/20 01:43:59;;;;;;;28.52;12.30;;;;;;;;;;6306997;22;20059;-84
2023/01/20 01:46:26;;;;;;;28.50;12.20;;;;;;;;;;6306724;22;20027;-87
2023/01/20 01:48:52;;;;;;;32.08;12.45;;;;;;;;;;6308312;22;20028;-84
2023/01/20 01:51:24;;;;;;;33.75;13.73;;;;;;;;;;6306928;22;20034;-87
2023/01/20 01:53:56;;;;;;;28.38;12.13;;;;;;;;;;6306670;22;20023;-87
2023/01/20 01:56:23;;;;;;;32.13;12.27;;;;;;;;;;6306040;22;20456;-85
2023/01/20 01:58:52;;;;;;;31.80;12.13;;;;;;;;;;6307780;22;20036;-85
2023/01/20 02:01:19;;;;;;;34.08;13.55;;;;;;;;;;6305884;22;20054;-85
2023/01/20 02:03:48;;;;;;;36.13;13.07;;;;;;;;;;6307817;22;20024;-85
2023/01/20 02:06:15;;;;;;;34.72;12.55;;;;;;;;;;6307795;22;20024;-85
2023/01/20 02:08:42;;;;;;;35.70;14.15;;;;;;;;;;6307321;22;20027;-86
2023/01/20 02:11:12;;;;;;;33.38;13.93;;;;;;;;;;6306568;22;20027;-85
2023/01/20 02:13:39;;;;;;;35.22;13.55;;;;;;;;;;6303855;22;20024;-85
2023/01/20 02:16:08;;;;;;;40.28;14.48;;;;;;;;;;6305800;22;20051;-85
2023/01/20 02:18:40;;;;;;;35.25;14.57;;;;;;;;;;6306847;22;20435;-85
2023/01/20 02:21:15;;;;;;;42.42;15.13;;;;;;;;;;6305762;22;20024;-85
2023/01/20 02:23:53;;;;;;;41.33;15.45;;;;;;;;;;6306383;22;20067;-85
2023/01/20 02:26:51;;;;;;;38.92;14.88;;;;;;;;;;6305338;22;20020;-85
2023/01/20 02:29:20;;;;;;;41.88;16.15;;;;;;;;;;6304315;22;20421;-86
2023/01/20 02:32:05;;;;;;;43.22;16.17;;;;;;;;;;6305477;22;20452;-86
2023/01/20 02:34:37;;;;;;;46.53;17.38;;;;;;;;;;6304123;22;20078;-86
2023/01/20 02:37:03;;;;;;;46.03;17.60;;;;;;;;;;6304691;22;20038;-86
2023/01/20 02:39:41;;;;;;;46.33;17.40;;;;;;;;;;6302850;22;20020;-86
2023/01/20 02:42:10;;;;;;;48.05;18.23;;;;;;;;;;6305793;22;20408;-85
2023/01/20 02:44:51;;;;;;;56.20;19.05;;;;;;;;;;6306387;22;20023;-85
2023/01/20 02:47:20;;;;;;;52.10;18.45;;;;;;;;;;6277132;22;20098;-85
2023/01/20 02:50:00;;;;;;;56.60;19.02;;;;;;;;;;6302994;22;20055;-86
2023/01/20 02:52:29;;;;;;;56.78;19.05;;;;;;;;;;6303742;22;20063;-86
2023/01/20 02:54:58;;;;;;;54.08;19.52;;;;;;;;;;6303721;22;20106;-86
2023/01/20 02:57:27;;;;;;;;;;;;;;;;;;6304323;22;20023;-85
2023/01/20 02:59:54;;;;;;;50.42;18.13;;;;;;;;;;6302567;22;47019;-85
2023/01/20 03:02:23;;;;;;;55.13;18.40;;;;;;;;;;6304479;22;20047;-86
2023/01/20 03:04:51;;;;;;;59.47;19.65;;;;;;;;;;6302632;22;20024;-85
2023/01/20 03:07:20;;;;;;;59.50;20.13;;;;;;;;;;6302775;22;20046;-85
2023/01/20 03:09:48;;;;;;;59.22;18.80;;;;;;;;;;6302507;22;20027;-86
2023/01/20 03:12:28;;;;;;;61.85;19.17;;;;;;;;;;6304882;22;20861;-85
2023/01/20 03:14:54;;;;;;;67.57;20.25;;;;;;;;;;6304815;22;20054;-85
2023/01/20 03:17:21;;;;;;;63.05;20.30;;;;;;;;;;6304803;22;20051;-85
2023/01/20 03:19:48;;;;;;;69.45;21.85;;;;;;;;;;6304561;22;20480;-85
2023/01/20 03:22:15;;;;;;;61.42;19.40;;;;;;;;;;6305275;22;20070;-85
2023/01/20 03:24:43;;;;;;;71.78;22.13;;;;;;;;;;6303240;22;20494;-85
2023/01/20 03:27:10;;;;;;;69.50;20.95;;;;;;;;;;6306058;22;20129;-85
2023/01/20 03:29:36;;;;;;;62.85;20.00;;;;;;;;;;6303949;22;20045;-85
2023/01/20 03:32:04;;;;;;;63.35;21.38;;;;;;;;;;6305394;22;20028;-85
2023/01/20 03:34:32;;;;;;;69.25;19.20;;;;;;;;;;6304199;22;20626;-85
2023/01/20 03:36:59;;;;;;;65.97;20.60;;;;;;;;;;6303618;22;20519;-85
2023/01/20 03:39:26;;;;;;;62.58;19.02;;;;;;;;;;6304020;22;20027;-85
2023/01/20 03:41:55;;;;;;;68.47;20.05;;;;;;;;;;6305076;22;20077;-85
2023/01/20 03:44:22;;;;;;;57.30;20.23;;;;;;;;;;6304247;22;20026;-85
2023/01/20 03:46:56;;;;;;;64.03;20.75;;;;;;;;;;6304515;22;20027;-86
2023/01/20 03:49:27;;;;;;;64.57;19.95;;;;;;;;;;6304692;22;20062;-85
2023/01/20 03:51:59;;;;;;;66.13;20.30;;;;;;;;;;6302562;22;20102;-85
2023/01/20 03:54:30;;;;;;;63.70;20.35;;;;;;;;;;6304792;22;20067;-85
2023/01/20 03:56:56;;;;;;;;;;;;;;;;;;6305118;22;20028;-86
2023/01/20 03:59:23;;;;;;;62.83;19.10;;;;;;;;;;6303194;22;45519;-85
2023/01/20 04:01:50;;;;;;;64.65;19.67;;;;;;;;;;6304367;22;20024;-86
2023/01/20 04:04:18;;;;;;;57.72;18.52;;;;;;;;;;6304506;22;20032;-85
2023/01/20 04:06:45;;;;;;;63.55;18.83;;;;;;;;;;6305201;22;20028;-85
2023/01/20 04:09:23;;;;;;;68.53;21.35;;;;;;;;;;6304920;22;20094;-85
2023/01/20 04:11:50;;;;;;;72.32;21.05;;;;;;;;;;6304723;22;20028;-85
2023/01/20 04:14:16;;;;;;;73.63;20.25;;;;;;;;;;6304105;22;20090;-85
2023/01/20 04:16:48;;;;;;;68.25;19.77;;;;;;;;;;6303708;22;20031;-84
2023/01/20 04:19:14;;;;;;;64.50;20.17;;;;;;;;;;6303831;22;20449;-83
2023/01/20 04:21:43;;;;;;;68.53;20.85;;;;;;;;;;6304598;22;20086;-83
2023/01/20 04:24:18;;;;;;;61.67;18.95;;;;;;;;;;6304494;22;20011;-85
2023/01/20 04:26:44;;;;;;;63.30;19.60;;;;;;;;;;6302022;22;20027;-86
2023/01/20 04:29:11;;;;;;;61.85;20.20;;;;;;;;;;6304777;22;20054;-85
2023/01/20 04:31:38;;;;;;;68.15;19.88;;;;;;;;;;6309688;22;20027;-86
2023/01/20 04:34:05;;;;;;;66.20;19.27;;;;;;;;;;6306252;22;20023;-86
2023/01/20 04:36:31;;;;;;;55.58;18.38;;;;;;;;;;6306564;22;20020;-86
2023/01/20 04:38:58;;;;;;;63.45;18.98;;;;;;;;;;6308046;22;20035;-86
2023/01/20 04:41:25;;;;;;;61.08;19.17;;;;;;;;;;6309567;22;20024;-86
2023/01/20 04:43:55;;;;;;;58.23;19.07;;;;;;;;;;6309355;22;20016;-86
2023/01/20 04:46:25;;;;;;;56.33;18.42;;;;;;;;;;6309802;22;20065;-86
2023/01/20 04:48:51;;;;;;;61.50;18.50;;;;;;;;;;6307454;22;20015;-87
2023/01/20 04:51:18;;;;;;;66.47;20.17;;;;;;;;;;6309034;22;20020;-83
2023/01/20 04:53:44;;;;;;;61.80;20.40;;;;;;;;;;6309157;22;20045;-84
2023/01/20 04:56:11;;;;;;;67.85;20.02;;;;;;;;;;6309671;22;20025;-83
2023/01/20 04:58:38;;;;;;;64.28;18.77;;;;;;;;;;6309947;22;20023;-83
2023/01/20 05:01:04;;;;;;;61.80;20.48;;;;;;;;;;6309013;22;20043;-83
2023/01/20 05:03:31;;;;;;;63.13;19.40;;;;;;;;;;6308622;22;20015;-82
2023/01/20 05:05:57;;;;;;;58.28;18.77;;;;;;;;;;6307850;22;20089;-83
2023/01/20 05:08:24;;;;;;;67.45;20.02;;;;;;;;;;6304027;22;20023;-83
2023/01/20 05:10:50;;;;;;;69.63;20.65;;;;;;;;;;6304095;22;20345;-82
2023/01/20 05:13:16;;;;;;;69.10;20.60;;;;;;;;;;6303559;22;20498;-83
2023/01/20 05:15:43;;;;;;;63.53;18.77;;;;;;;;;;6304325;22;20326;-85
2023/01/20 05:18:09;;;;;;;61.72;18.85;;;;;;;;;;6303821;22;20122;-86
2023/01/20 05:20:36;;;;;;;65.82;20.33;;;;;;;;;;6301813;22;20052;-85
2023/01/20 05:23:02;;;;;;;66.78;19.33;;;;;;;;;;6304371;22;20451;-83
2023/01/20 05:25:29;;;;;;;73.50;20.15;;;;;;;;;;6301788;22;20035;-83
2023/01/20 05:27:55;;;;;;;67.05;19.05;;;;;;;;;;6304450;22;20031;-82
2023/01/20 05:30:24;;;;;;;62.63;19.40;;;;;;;;;;6304222;22;20023;-83
2023/01/20 05:32:51;;;;;;;58.50;18.98;;;;;;;;;;6305448;22;20050;-83
2023/01/20 05:35:17;;;;;;;77.25;22.58;;;;;;;;;;6305062;22;20023;-83
2023/01/20 05:37:44;;;;;;;68.85;20.35;;;;;;;;;;6303619;22;20559;-83
2023/01/20 05:40:10;;;;;;;61.30;20.38;;;;;;;;;;6302417;22;20015;-83
2023/01/20 05:42:36;;;;;;;72.28;20.75;;;;;;;;;;6303589;22;20480;-83
2023/01/20 05:45:03;;;;;;;63.72;20.23;;;;;;;;;;6303699;22;20027;-83
2023/01/20 05:47:29;;;;;;;66.05;19.95;;;;;;;;;;6303948;22;20078;-83
2023/01/20 05:49:56;;;;;;;65.30;21.58;;;;;;;;;;6301713;22;20084;-83
2023/01/20 05:52:22;;;;;;;66.55;21.13;;;;;;;;;;6303394;22;20032;-83
2023/01/20 05:54:48;;;;;;;67.93;19.77;;;;;;;;;;6303299;22;20095;-83
2023/01/20 05:57:17;;;;;;;71.32;22.73;;;;;;;;;;6303794;22;20030;-86
2023/01/20 05:59:44;;;;;;;66.05;23.98;;;;;;;;;;6302768;22;20047;-86
2023/01/20 06:05:26;;;;;;;72.20;22.45;;;;;;;;;;6282526;22;20020;-85
2023/01/20 06:07:56;;;;;;;75.35;22.42;;;;;;;;;;6306080;22;20030;-85
2023/01/20 06:10:26;;;;;;;76.28;22.58;;;;;;;;;;6303586;22;20058;-86
2023/01/20 06:12:53;;;;;;;67.85;21.83;;;;;;;;;;6301703;22;20507;-85
2023/01/20 06:15:20;;;;;;;70.53;22.10;;;;;;;;;;6303810;22;20098;-85
2023/01/20 06:17:46;;;;;;;78.80;22.58;;;;;;;;;;6306085;22;20297;-85
2023/01/20 06:20:13;;;;;;;63.95;21.08;;;;;;;;;;6304131;22;20031;-85
2023/01/20 06:22:42;;;;;;;70.50;20.67;;;;;;;;;;6302476;22;20468;-85
2023/01/20 06:25:08;;;;;;;77.43;22.83;;;;;;;;;;6303919;22;20024;-85
2023/01/20 06:27:36;;;;;;;79.40;23.23;;;;;;;;;;6301757;22;20820;-85
2023/01/20 06:30:03;;;;;;;75.68;22.80;;;;;;;;;;6301252;22;20517;-84
2023/01/20 06:32:31;;;;;;;79.90;24.00;;;;;;;;;;6302283;22;20067;-84
2023/01/20 06:34:58;;;;;;;75.53;22.50;;;;;;;;;;6303358;22;20065;-85
2023/01/20 06:37:24;;;;;;;70.25;20.88;;;;;;;;;;6302646;22;20110;-84
2023/01/20 06:39:51;;;;;;;75.45;22.42;;;;;;;;;;6303211;22;20434;-84
2023/01/20 06:42:17;;;;;;;77.00;21.55;;;;;;;;;;6304584;22;20023;-85
2023/01/20 06:44:43;;;;;;;76.05;22.38;;;;;;;;;;6276504;22;20074;-85
2023/01/20 06:47:10;;;;;;;69.20;21.63;;;;;;;;;;6304781;22;20032;-85
2023/01/20 06:49:36;;;;;;;70.03;20.77;;;;;;;;;;6304423;22;20028;-84
2023/01/20 06:52:02;;;;;;;68.65;21.33;;;;;;;;;;6304443;22;20032;-85
2023/01/20 06:54:29;;;;;;;76.25;22.02;;;;;;;;;;6305648;22;20020;-84
2023/01/20 06:56:55;;;;;;;65.32;20.27;;;;;;;;;;6302558;22;20094;-84
2023/01/20 06:59:22;;;;;;;66.15;20.38;;;;;;;;;;6301578;22;20103;-84
2023/01/20 07:01:48;;;;;;;70.13;20.23;;;;;;;;;;6304611;22;20515;-84
2023/01/20 07:04:15;;;;;;;70.85;19.50;;;;;;;;;;6277478;22;20027;-84
2023/01/20 07:06:41;;;;;;;83.00;22.70;;;;;;;;;;6307443;22;20047;-84
2023/01/20 07:09:11;;;;;;;79.18;23.63;;;;;;;;;;6304162;22;20091;-83
2023/01/20 07:11:38;;;;;;;71.95;19.70;;;;;;;;;;6304257;22;20023;-84
2023/01/20 07:14:04;;;;;;;67.68;21.52;;;;;;;;;;6304895;22;20134;-84
2023/01/20 07:16:31;;;;;;;59.65;19.42;;;;;;;;;;6304346;22;20027;-84
2023/01/20 07:18:57;;;;;;;70.97;21.30;;;;;;;;;;6303806;22;20035;-84
2023/01/20 07:21:24;;;;;;;68.47;21.00;;;;;;;;;;6304154;22;20024;-83
2023/01/20 07:23:51;;;;;;;71.95;22.45;;;;;;;;;;6303873;22;20027;-84
2023/01/20 07:26:20;;;;;;;73.60;20.67;;;;;;;;;;6302845;22;20729;-84
2023/01/20 07:28:46;;;;;;;71.28;21.48;;;;;;;;;;6303245;22;20030;-84
2023/01/20 07:31:13;;;;;;;66.88;18.98;;;;;;;;;;6301836;22;20068;-84
2023/01/20 07:33:39;;;;;;;68.63;20.42;;;;;;;;;;6304392;22;20047;-84
2023/01/20 07:36:07;;;;;;;79.72;21.48;;;;;;;;;;6305075;22;20123;-84
2023/01/20 07:38:33;;;;;;;77.13;21.35;;;;;;;;;;6306603;22;20054;-84
2023/01/20 07:41:01;;;;;;;74.60;20.77;;;;;;;;;;6307216;22;20020;-84
2023/01/20 07:43:30;;;;;;;67.87;20.70;;;;;;;;;;6308911;22;20151;-84
2023/01/20 07:46:00;;;;;;;85.95;23.05;;;;;;;;;;6307460;22;20060;-84
2023/01/20 07:48:28;;;;;;;65.70;20.30;;;;;;;;;;6307903;22;20472;-84
2023/01/20 07:51:01;;;;;;;68.18;20.67;;;;;;;;;;6304889;22;20024;-84
2023/01/20 07:53:28;;;;;;;75.55;20.40;;;;;;;;;;6311588;22;20011;-85
2023/01/20 07:55:54;;;;;;;81.03;20.92;;;;;;;;;;6312615;22;20523;-84
2023/01/20 07:58:21;;;;;;;70.32;19.90;;;;;;;;;;6311886;22;20078;-85
2023/01/20 08:00:47;;;;;;;61.85;18.77;;;;;;;;;;6309389;22;20091;-84
2023/01/20 08:03:15;;;;;;;72.25;21.02;;;;;;;;;;6311517;22;20610;-85
2023/01/20 08:05:41;;;;;;;70.43;19.58;;;;;;;;;;6312387;22;20039;-85
2023/01/20 08:08:07;;;;;;;64.47;20.75;;;;;;;;;;6315473;22;20054;-84
2023/01/20 08:10:34;;;;;;;68.18;20.40;;;;;;;;;;6315908;22;20071;-84
2023/01/20 08:13:00;;;;;;;63.63;20.45;;;;;;;;;;6312225;22;20217;-84
2023/01/20 08:15:27;;;;;;;72.30;20.95;;;;;;;;;;6312044;22;20678;-84
2023/01/20 08:17:54;;;;;;;73.38;19.85;;;;;;;;;;6308195;22;20074;-83
2023/01/20 08:20:21;;;;;;;74.95;20.77;;;;;;;;;;6308808;22;20043;-83
2023/01/20 08:22:47;;;;;;;71.30;21.30;;;;;;;;;;6310788;22;20107;-83
2023/01/20 08:25:14;;;;;;;69.32;20.40;;;;;;;;;;6312019;22;20728;-84
2023/01/20 08:27:40;;;;;;;62.35;18.83;;;;;;;;;;6309690;22;20019;-84
2023/01/20 08:30:07;;;;;;;70.95;20.85;;;;;;;;;;6312397;22;20061;-83
2023/01/20 08:32:33;;;;;;;67.07;20.00;;;;;;;;;;6312925;22;20015;-84
2023/01/20 08:34:59;;;;;;;63.13;20.98;;;;;;;;;;6311868;22;20133;-83
2023/01/20 08:37:26;;;;;;;66.18;19.67;;;;;;;;;;6313109;22;20104;-83
2023/01/20 08:39:52;;;;;;;71.93;19.60;;;;;;;;;;6312428;22;20027;-83
2023/01/20 08:42:18;;;;;;;62.13;20.17;;;;;;;;;;6313307;22;20095;-83
2023/01/20 08:44:46;;;;;;;74.18;20.98;;;;;;;;;;6313213;22;20024;-83
2023/01/20 08:47:12;;;;;;;70.45;20.92;;;;;;;;;;6313823;22;20270;-84
2023/01/20 08:49:39;;;;;;;63.05;19.48;;;;;;;;;;6312368;22;20070;-82
2023/01/20 08:52:05;;;;;;;61.63;20.38;;;;;;;;;;6312927;22;20024;-83
2023/01/20 08:54:33;;;;;;;65.82;19.33;;;;;;;;;;6311055;22;20024;-82
2023/01/20 08:56:59;;;;;;;67.50;19.30;;;;;;;;;;6309611;22;20032;-83
2023/01/20 08:59:26;;;;;;;74.30;19.65;;;;;;;;;;6308514;22;20103;-82
2023/01/20 09:01:52;;;;;;;57.13;18.80;;;;;;;;;;6309277;22;20480;-83
2023/01/20 09:04:19;;;;;;;62.40;19.42;;;;;;;;;;6307705;22;20032;-82
2023/01/20 09:06:47;;;;;;;66.00;20.77;;;;;;;;;;6308295;22;20043;-83
2023/01/20 09:09:14;;;;;;;61.88;19.27;;;;;;;;;;6307293;22;20588;-84
2023/01/20 09:11:43;;;;;;;59.03;19.23;;;;;;;;;;6308643;22;20107;-83
2023/01/20 09:14:10;;;;;;;60.60;18.83;;;;;;;;;;6308675;22;20020;-83
2023/01/20 09:16:36;;;;;;;51.97;19.77;;;;;;;;;;6308318;22;20063;-83
2023/01/20 09:19:02;;;;;;;61.25;18.10;;;;;;;;;;6308168;22;20034;-83
2023/01/20 09:21:29;;;;;;;68.78;20.15;;;;;;;;;;6307845;22;20023;-82
2023/01/20 09:23:56;;;;;;;65.43;19.80;;;;;;;;;;6305213;22;20071;-84
2023/01/20 09:26:22;;;;;;;60.50;19.15;;;;;;;;;;6306182;22;20236;-83
2023/01/20 09:29:07;;;;;;;56.45;17.17;;;;;;;;;;6306644;22;20030;-83
2023/01/20 09:31:35;;;;;;;63.55;20.50;;;;;;;;;;6303849;22;20468;-83
2023/01/20 09:34:02;;;;;;;67.55;21.10;;;;;;;;;;6305042;22;20605;-83
2023/01/20 09:36:28;;;;;;;55.17;17.90;;;;;;;;;;6306085;22;20035;-83
2023/01/20 09:44:41;;;;;;;55.78;20.27;;;;;;;;;;6306094;22;20032;-83
2023/01/20 09:47:20;;;;;;;50.33;19.38;;;;;;;;;;6303488;22;20451;-82
2023/01/20 09:53:03;;;;;;;;;;;;;;;;;;6306571;22;20085;-83
2023/01/20 09:55:35;;;;;;;47.95;18.33;;;;;;;;;;6304145;22;45964;-83
2023/01/20 09:58:11;;;;;;;51.92;17.33;;;;;;;;;;6305401;22;20043;-83
2023/01/20 10:00:39;;;;;;;48.45;17.17;;;;;;;;;;6305225;22;20102;-83
2023/01/20 10:03:10;;;;;;;47.70;16.98;;;;;;;;;;6304853;22;20027;-83
2023/01/20 10:05:38;;;;;;;41.05;15.30;;;;;;;;;;6304559;22;20031;-82
2023/01/20 10:08:25;;;;;;;44.70;16.05;;;;;;;;;;6302766;22;20955;-82
2023/01/20 10:10:57;;;;;;;44.13;15.95;;;;;;;;;;6304410;22;20019;-82
2023/01/20 10:13:32;;;;;;;41.85;15.10;;;;;;;;;;6304677;22;20055;-82
2023/01/20 10:16:05;;;;;;;45.08;15.50;;;;;;;;;;6305256;22;20054;-82
2023/01/20 10:19:01;;;;;;;50.60;17.85;;;;;;;;;;6306010;22;20542;-82
2023/01/20 10:21:34;;;;;;;42.80;16.33;;;;;;;;;;6285724;22;20024;-82
2023/01/20 10:24:06;;;;;;;39.75;16.67;;;;;;;;;;6306905;22;20019;-82
2023/01/20 10:26:37;;;;;;;39.72;16.25;;;;;;;;;;6305603;22;20031;-82
2023/01/20 10:29:05;;;;;;;40.67;15.45;;;;;;;;;;6306677;22;20056;-82
2023/01/20 10:31:34;;;;;;;40.55;15.18;;;;;;;;;;6306425;22;20023;-82
2023/01/20 10:34:11;;;;;;;39.90;15.60;;;;;;;;;;6306256;22;20110;-82
2023/01/20 10:36:39;;;;;;;40.08;15.15;;;;;;;;;;6305028;22;20027;-82
2023/01/20 10:39:24;;;;;;;39.85;15.07;;;;;;;;;;6279106;22;20020;-82
2023/01/20 10:42:10;;;;;;;35.95;14.18;;;;;;;;;;6305960;22;20024;-82
2023/01/20 10:44:37;;;;;;;40.63;14.27;;;;;;;;;;6305384;22;20123;-82
2023/01/20 10:47:19;;;;;;;41.70;15.10;;;;;;;;;;6304845;22;20028;-82
2023/01/20 10:49:52;;;;;;;41.72;15.10;;;;;;;;;;6305714;22;20024;-82
2023/01/20 10:52:18;;;;;;;43.10;15.15;;;;;;;;;;6304460;22;20433;-82
2023/01/20 10:54:49;;;;;;;42.50;16.27;;;;;;;;;;6304149;22;20027;-81
2023/01/20 10:57:16;;;;;;;;;;;;;;;;;;6305870;22;20471;-82
2023/01/20 10:59:44;;;;;;;39.05;14.35;;;;;;;;;;6302988;22;46295;-81
2023/01/20 11:02:23;;;;;;;39.85;13.27;;;;;;;;;;6305329;22;20032;-82
2023/01/20 11:04:55;;;;;;;42.15;14.43;;;;;;;;;;6306937;22;20059;-81
2023/01/20 11:07:26;;;;;;;35.03;13.88;;;;;;;;;;6305374;22;20032;-82
2023/01/20 11:09:52;;;;;;;35.33;14.02;;;;;;;;;;6307147;22;20058;-81
2023/01/20 11:12:24;;;;;;;32.60;12.63;;;;;;;;;;6306981;22;20019;-82
2023/01/20 11:14:52;;;;;;;32.08;12.63;;;;;;;;;;6305551;22;20069;-82
2023/01/20 11:17:19;;;;;;;35.13;13.32;;;;;;;;;;6307205;22;20137;-82
2023/01/20 11:19:46;;;;;;;34.83;12.70;;;;;;;;;;6305931;22;20031;-82
2023/01/20 11:22:13;;;;;;;36.08;13.13;;;;;;;;;;6306161;22;20035;-82
2023/01/20 11:24:44;;;;;;;29.35;12.02;;;;;;;;;;6307377;22;20020;-82
2023/01/20 11:27:15;;;;;;;34.25;12.65;;;;;;;;;;6307180;22;20023;-82
2023/01/20 11:29:43;;;;;;;34.05;14.45;;;;;;;;;;6307133;22;20023;-82
2023/01/20 11:32:26;;;;;;;78.88;30.83;;;;;;;;;;6308248;22;20023;-82
2023/01/20 11:34:54;;;;;;;42.58;18.23;;;;;;;;;;6309714;22;20127;-83
2023/01/20 11:37:24;;;;;;;40.58;17.50;;;;;;;;;;6282080;22;20443;-82
2023/01/20 11:40:03;;;;;;;36.42;15.88;;;;;;;;;;6310323;22;20026;-82
2023/01/20 11:42:39;;;;;;;38.13;15.75;;;;;;;;;;6309154;22;20030;-82
2023/01/20 11:45:26;;;;;;;41.13;16.23;;;;;;;;;;6306919;22;20026;-82
2023/01/20 11:48:00;;;;;;;38.00;14.10;;;;;;;;;;6306759;22;20027;-82
2023/01/20 11:50:29;;;;;;;36.15;13.57;;;;;;;;;;6308144;22;20490;-82
2023/01/20 11:53:10;;;;;;;34.58;13.55;;;;;;;;;;6307638;22;20713;-82
2023/01/20 11:55:52;;;;;;;31.85;13.02;;;;;;;;;;6307713;22;20023;-82
2023/01/20 11:58:25;;;;;;;34.83;12.57;;;;;;;;;;6307847;22;20026;-82
2023/01/20 12:00:52;;;;;;;;;;;;;;;;;;6308197;22;20484;-82
2023/01/20 12:03:21;;;;;;;35.25;13.30;;;;;;;;;;6305105;22;46619;-82
2023/01/20 12:05:47;;;;;;;34.45;13.73;;;;;;;;;;6306707;22;20480;-83
2023/01/20 12:08:16;;;;;;;34.70;13.90;;;;;;;;;;6305498;22;20019;-83
2023/01/20 12:10:43;;;;;;;36.47;13.88;;;;;;;;;;6305476;22;20035;-82
2023/01/20 12:13:18;;;;;;;38.72;15.15;;;;;;;;;;6306220;22;20034;-82
2023/01/20 12:15:53;;;;;;;34.25;14.73;;;;;;;;;;6307415;22;20066;-82
2023/01/20 12:18:32;;;;;;;34.33;13.23;;;;;;;;;;6307357;22;20027;-82
2023/01/20 12:21:04;;;;;;;32.70;13.23;;;;;;;;;;6309592;22;20030;-83
2023/01/20 12:23:38;;;;;;;33.58;14.05;;;;;;;;;;6310914;22;20243;-83
2023/01/20 12:26:05;;;;;;;33.33;13.48;;;;;;;;;;6309969;22;20501;-83
2023/01/20 12:28:31;;;;;;;36.60;13.15;;;;;;;;;;6310279;22;20528;-83
2023/01/20 12:31:02;;;;;;;32.55;13.40;;;;;;;;;;6308037;22;20034;-82
2023/01/20 12:33:33;;;;;;;37.20;14.95;;;;;;;;;;6309745;22;20019;-82
2023/01/20 12:35:59;;;;;;;31.42;13.32;;;;;;;;;;6309506;22;20467;-82
2023/01/20 12:38:29;;;;;;;33.90;13.75;;;;;;;;;;6307924;22;20019;-82
2023/01/20 12:41:01;;;;;;;34.92;13.70;;;;;;;;;;6310832;22;20028;-82
2023/01/20 12:43:54;;;;;;;40.35;14.00;;;;;;;;;;6307936;22;20022;-82
2023/01/20 12:46:20;;;;;;;38.40;13.90;;;;;;;;;;6308257;22;20024;-82
2023/01/20 12:48:47;;;;;;;37.40;13.77;;;;;;;;;;6309789;22;20288;-82
2023/01/20 12:51:19;;;;;;;37.13;13.50;;;;;;;;;;6310044;22;20075;-82
2023/01/20 12:53:47;;;;;;;38.08;14.93;;;;;;;;;;6309942;22;20020;-82
2023/01/20 12:56:13;;;;;;;40.08;15.68;;;;;;;;;;6307923;22;20019;-82
2023/01/20 12:58:40;;;;;;;38.58;14.20;;;;;;;;;;6306814;22;20886;-83
2023/01/20 13:01:06;;;;;;;38.47;15.32;;;;;;;;;;6305313;22;20020;-83
2023/01/20 13:03:51;;;;;;;38.95;15.50;;;;;;;;;;6307708;22;20008;-82
2023/01/20 13:06:22;;;;;;;36.92;14.82;;;;;;;;;;6306307;22;20024;-83
2023/01/20 13:09:01;;;;;;;36.40;14.23;;;;;;;;;;6305516;22;20050;-83
2023/01/20 13:11:38;;;;;;;34.33;14.27;;;;;;;;;;6305689;22;20035;-83
2023/01/20 13:14:19;;;;;;;37.25;14.35;;;;;;;;;;6308149;22;20078;-83
2023/01/20 13:16:57;;;;;;;35.05;14.93;;;;;;;;;;6306427;22;20098;-83
2023/01/20 13:19:36;;;;;;;36.70;14.23;;;;;;;;;;6303509;22;20031;-83
2023/01/20 13:22:13;;;;;;;37.40;14.05;;;;;;;;;;6306484;22;20490;-83
2023/01/20 13:24:43;;;;;;;38.05;15.23;;;;;;;;;;6305736;22;20011;-83
2023/01/20 13:27:10;;;;;;;34.55;13.43;;;;;;;;;;6306125;22;20023;-84
2023/01/20 13:30:03;;;;;;;33.08;13.73;;;;;;;;;;6303478;22;20047;-83
2023/01/20 13:32:29;;;;;;;33.22;13.85;;;;;;;;;;6299902;22;20032;-83
2023/01/20 13:34:56;;;;;;;29.58;12.18;;;;;;;;;;6302688;22;20418;-83
2023/01/20 13:37:27;;;;;;;32.40;12.85;;;;;;;;;;6304945;22;20047;-83
2023/01/20 13:39:53;;;;;;;;;;;;;;;;;;6304528;22;20487;-83
2023/01/20 13:42:50;;;;;;;27.25;11.57;;;;;;;;;;6305551;22;46217;-83
2023/01/20 13:45:18;;;;;;;30.60;11.65;;;;;;;;;;6286555;22;20381;-83
2023/01/20 13:47:47;;;;;;;32.10;12.55;;;;;;;;;;6305216;22;20024;-83
2023/01/20 13:50:22;;;;;;;31.88;12.60;;;;;;;;;;6302527;22;20024;-84
2023/01/20 13:52:49;;;;;;;34.75;12.43;;;;;;;;;;6302930;22;20508;-83
2023/01/20 13:55:34;;;;;;;29.48;12.10;;;;;;;;;;6305433;22;20020;-83
2023/01/20 13:58:00;;;;;;;37.83;13.95;;;;;;;;;;6304931;22;20082;-83
2023/01/20 14:00:26;;;;;;;29.60;12.13;;;;;;;;;;6305140;22;20015;-83
2023/01/20 14:02:55;;;;;;;33.08;12.32;;;;;;;;;;6304293;22;20412;-83
2023/01/20 14:05:23;;;;;;;28.58;12.98;;;;;;;;;;6304769;22;20031;-83
2023/01/20 14:07:50;;;;;;;26.50;11.77;;;;;;;;;;6306721;22;20024;-83
2023/01/20 14:10:17;;;;;;;26.90;10.73;;;;;;;;;;6302130;22;20023;-83
2023/01/20 14:12:43;;;;;;;31.08;12.60;;;;;;;;;;6306387;22;20534;-83
2023/01/20 14:15:23;;;;;;;30.83;12.18;;;;;;;;;;6306363;22;20027;-83
2023/01/20 14:17:56;;;;;;;27.77;12.13;;;;;;;;;;6307379;22;20020;-83
2023/01/20 14:20:24;;;;;;;29.63;11.77;;;;;;;;;;6305211;22;20004;-83
2023/01/20 14:22:50;;;;;;;29.10;11.95;;;;;;;;;;6307658;22;20024;-83
2023/01/20 14:25:25;;;;;;;28.83;11.23;;;;;;;;;;6304638;22;20028;-83
2023/01/20 14:27:51;;;;;;;28.95;11.32;;;;;;;;;;6305403;22;20031;-82
2023/01/20 14:30:22;;;;;;;25.42;9.88;;;;;;;;;;6304052;22;20030;-83
2023/01/20 14:32:49;;;;;;;28.98;11.90;;;;;;;;;;6305692;22;20032;-83
2023/01/20 14:35:26;;;;;;;27.95;11.45;;;;;;;;;;6306052;22;20024;-83
2023/01/20 14:37:52;;;;;;;29.17;12.20;;;;;;;;;;6305533;22;20028;-83
2023/01/20 14:40:32;;;;;;;29.13;11.77;;;;;;;;;;6303413;22;20024;-83
2023/01/20 14:42:58;;;;;;;31.13;12.70;;;;;;;;;;6304680;22;20093;-82
2023/01/20 14:45:29;;;;;;;29.40;11.70;;;;;;;;;;6302837;22;20452;-82